SOHO CELIAS Proton Monitor
Solar Wind Parameters for Carrington Rotation 2199 (hour averages)


Listed Parameters:

Measurement time (Year, Month, Day of Month, Day of Year, Hour, Minute, Second)
Proton speed [km/sec]
Proton density [protons per cubic centimeter]
Most probable proton thermal speed [km/sec]
Arrival direction [degrees from north-south, with + meaning FROM the south).
(SPEED=-1 means NOT AVAILABLE)

SOHO spacecraft coordinates: based on SOHO PRE orbit files
GSE X, Y, Z [Earth Radii] 1 RE == 6378 km
Heliocentric Range [106 km],
Heliographic Latitude and Longitude [deg].

FORMAT=(1X,I2,1X,I3,1X,I2,1X,I2,1X,I2,F7.1,3F7.2,3X,3F7.1,F7.1,F7.2,F8.2)



                              CELIAS/MTOF/PM DATA                      SOHO ORBIT DATA              
 InSitu_Start__Time       [km/s]  [cm-3] [km/s]  [deg]      [Re]   [Re]   [Re]  [Mkm]  [deg]  [deg]
 YY MON DY DOY:HH:MM:SS   SPEED     Np     Vth    N/S      GSE_X  GSE_Y  GSE_Z  RANGE  HGLAT  HGLONG
 17 DEC 30 364:22:00:00     351    1.8      28   -1.5      216.2 -102.7   -3.3  145.7   -2.9   360.0
 17 DEC 30 364:23:00:00     349    2.1      27   -1.4      216.1 -102.7   -3.3  145.7   -2.9   359.9
 17 DEC 31 365:00:00:00     349    2.3      26   -1.4      216.1 -102.7   -3.2  145.7   -2.9   359.3
 17 DEC 31 365:01:00:00     345    1.5      27   -0.9      216.0 -102.7   -3.2  145.7   -2.9   358.8
 17 DEC 31 365:02:00:00     343    1.5      26   -0.3      215.9 -102.7   -3.2  145.7   -2.9   358.2
 17 DEC 31 365:03:00:00     344    1.5      27   -0.9      215.9 -102.7   -3.2  145.7   -2.9   357.7
 17 DEC 31 365:04:00:00     342    1.5      26   -1.4      215.8 -102.7   -3.1  145.7   -2.9   357.1
 17 DEC 31 365:05:00:00     338    1.6      25   -0.8      215.8 -102.7   -3.1  145.7   -2.9   356.6
 17 DEC 31 365:06:00:00     346    2.9      22   -1.2      215.7 -102.7   -3.1  145.7   -3.0   356.0
 17 DEC 31 365:07:00:00     352    4.3      20   -2.3      215.7 -102.7   -3.1  145.7   -3.0   355.5
 17 DEC 31 365:08:00:00     353    5.2      20   -3.4      215.6 -102.7   -3.0  145.7   -3.0   354.9
 17 DEC 31 365:09:00:00     352    4.8      20   -3.0      215.6 -102.7   -3.0  145.7   -3.0   354.4
 17 DEC 31 365:10:00:00     351    3.3      22   -3.2      215.5 -102.8   -3.0  145.7   -3.0   353.9
 17 DEC 31 365:11:00:00     343    2.2      24   -3.5      215.5 -102.8   -3.0  145.7   -3.0   353.3
 17 DEC 31 365:12:00:00     342    2.3      23   -2.8      215.4 -102.8   -2.9  145.7   -3.0   352.8
 17 DEC 31 365:13:00:00      -1   -1.0      -1   99.0      215.4 -102.8   -2.9  145.7   -3.0   352.2
 17 DEC 31 365:14:00:00      -1   -1.0      -1   99.0      215.3 -102.8   -2.9  145.7   -3.0   351.6
 17 DEC 31 365:15:00:00     351    6.0      20   -5.8      215.2 -102.8   -2.9  145.7   -3.0   351.1
 17 DEC 31 365:16:00:00     351    5.6      21   -6.1      215.2 -102.8   -2.8  145.7   -3.0   350.5
 17 DEC 31 365:17:00:00     349   11.0      17   -6.3      215.1 -102.8   -2.8  145.7   -3.0   350.0
 17 DEC 31 365:18:00:00     347   15.2      14   -6.1      215.1 -102.8   -2.8  145.7   -3.0   349.4
 17 DEC 31 365:19:00:00     359   19.3      18   -7.7      215.0 -102.8   -2.8  145.7   -3.0   348.9
 17 DEC 31 365:20:00:00     362   14.3      22   -6.4      215.0 -102.8   -2.7  145.7   -3.0   348.4
 17 DEC 31 365:21:00:00     351    7.1      23   -4.5      214.9 -102.8   -2.7  145.7   -3.0   347.8
 17 DEC 31 365:22:00:00     362    9.8      26   -6.9      214.9 -102.8   -2.7  145.7   -3.0   347.3
 17 DEC 31 365:23:00:00     360   12.4      26   -6.5      214.8 -102.8   -2.7  145.7   -3.0   346.7
 18 JAN  1   1:00:00:00     366   13.7      27   -5.7      214.8 -102.8   -2.6  145.7   -3.0   346.2
 18 JAN  1   1:01:00:00     363   12.5      24   -4.2      214.7 -102.8   -2.6  145.7   -3.0   345.6
 18 JAN  1   1:02:00:00     378   16.3      26   -5.6      214.7 -102.8   -2.6  145.7   -3.0   345.0
 18 JAN  1   1:03:00:00     388   17.4      38   -5.3      214.6 -102.8   -2.6  145.7   -3.0   344.5
 18 JAN  1   1:04:00:00     418    9.2      49   -2.6      214.6 -102.8   -2.5  145.7   -3.0   343.9
 18 JAN  1   1:05:00:00     420    8.8      51   -2.8      214.5 -102.8   -2.5  145.7   -3.0   343.4
 18 JAN  1   1:06:00:00     417    7.7      50   -2.5      214.5 -102.8   -2.5  145.7   -3.1   342.9
 18 JAN  1   1:07:00:00     406    7.4      47   -3.3      214.4 -102.8   -2.5  145.7   -3.1   342.3
 18 JAN  1   1:08:00:00     399    6.5      46   -2.8      214.4 -102.8   -2.4  145.7   -3.1   341.8
 18 JAN  1   1:09:00:00     381    7.1      42   -3.8      214.3 -102.8   -2.4  145.7   -3.1   341.2
 18 JAN  1   1:10:00:00     349   10.3      35   -3.1      214.3 -102.8   -2.4  145.7   -3.1   340.7
 18 JAN  1   1:11:00:00     364    7.2      37   -2.6      214.2 -102.8   -2.4  145.7   -3.1   340.1
 18 JAN  1   1:12:00:00     386    4.6      40   -2.2      214.2 -102.8   -2.3  145.7   -3.1   339.6
 18 JAN  1   1:13:00:00     395    4.1      35   -1.5      214.1 -102.8   -2.3  145.7   -3.1   339.0
 18 JAN  1   1:14:00:00     408    3.0      39   -0.1      214.1 -102.8   -2.3  145.7   -3.1   338.4
 18 JAN  1   1:15:00:00     429    2.2      40    0.0      214.0 -102.8   -2.3  145.7   -3.1   337.9
 18 JAN  1   1:16:00:00     441    2.5      43   -0.6      214.0 -102.8   -2.2  145.7   -3.1   337.4
 18 JAN  1   1:17:00:00     442    3.0      45    0.1      213.9 -102.8   -2.2  145.7   -3.1   336.8
 18 JAN  1   1:18:00:00     439    3.0      44    0.3      213.9 -102.8   -2.2  145.7   -3.2   336.3
 18 JAN  1   1:19:00:00     416    3.0      39    0.4      213.8 -102.8   -2.1  145.7   -3.2   335.8
 18 JAN  1   1:20:00:00     413    3.0      37    0.6      213.8 -102.8   -2.1  145.7   -3.2   335.2
 18 JAN  1   1:21:00:00     405    3.0      35    1.2      213.7 -102.8   -2.1  145.7   -3.2   334.6
 18 JAN  1   1:22:00:00     404    3.4      34    1.4      213.7 -102.8   -2.1  145.7   -3.2   334.1
 18 JAN  1   1:23:00:00     408    3.6      35    1.5      213.6 -102.8   -2.0  145.7   -3.2   333.5
 18 JAN  2   2:00:00:00     400    3.8      33    0.5      213.6 -102.8   -2.0  145.7   -3.2   333.0
 18 JAN  2   2:01:00:00     390    4.5      31   -0.9      213.5 -102.8   -2.0  145.7   -3.2   332.4
 18 JAN  2   2:02:00:00     401    4.2      32   -0.4      213.5 -102.8   -2.0  145.7   -3.2   331.9
 18 JAN  2   2:03:00:00     389    4.9      29   -1.0      213.4 -102.8   -1.9  145.7   -3.2   331.3
 18 JAN  2   2:04:00:00     386    4.1      28   -0.8      213.4 -102.8   -1.9  145.7   -3.2   330.8
 18 JAN  2   2:05:00:00     381    4.1      27   -0.4      213.3 -102.8   -1.9  145.7   -3.2   330.3
 18 JAN  2   2:06:00:00     380    3.4      27    0.0      213.3 -102.8   -1.9  145.7   -3.2   329.7
 18 JAN  2   2:07:00:00     382    3.6      27   -0.1      213.2 -102.8   -1.8  145.7   -3.2   329.2
 18 JAN  2   2:08:00:00     394    3.8      30   -0.3      213.2 -102.8   -1.8  145.7   -3.2   328.6
 18 JAN  2   2:09:00:00     415    3.7      36    0.1      213.1 -102.8   -1.8  145.7   -3.2   328.1
 18 JAN  2   2:10:00:00     408    4.0      34    0.2      213.1 -102.8   -1.8  145.7   -3.2   327.5
 18 JAN  2   2:11:00:00     410    4.1      34   -0.7      213.0 -102.8   -1.7  145.7   -3.2   326.9
 18 JAN  2   2:12:00:00     408    4.3      34    0.2      213.0 -102.8   -1.7  145.7   -3.2   326.4
 18 JAN  2   2:13:00:00     399    4.1      31    0.3      212.9 -102.8   -1.7  145.7   -3.2   325.8
 18 JAN  2   2:14:00:00     382    4.7      28    0.3      212.9 -102.8   -1.7  145.7   -3.2   325.3
 18 JAN  2   2:15:00:00     394    4.7      31    0.4      212.8 -102.8   -1.6  145.7   -3.2   324.8
 18 JAN  2   2:16:00:00     380    5.0      27   -0.6      212.8 -102.8   -1.6  145.7   -3.2   324.2
 18 JAN  2   2:17:00:00     385    4.6      29   -0.6      212.7 -102.7   -1.6  145.7   -3.2   323.7
 18 JAN  2   2:18:00:00     373    5.0      27   -0.5      212.7 -102.7   -1.6  145.7   -3.3   323.1
 18 JAN  2   2:19:00:00     373    5.3      27   -0.1      212.6 -102.7   -1.5  145.7   -3.3   322.6
 18 JAN  2   2:20:00:00     365    5.5      24   -0.9      212.6 -102.7   -1.5  145.7   -3.3   322.0
 18 JAN  2   2:21:00:00     364    5.2      23   -0.8      212.5 -102.7   -1.5  145.7   -3.3   321.5
 18 JAN  2   2:22:00:00     359    5.6      22   -0.9      212.5 -102.7   -1.5  145.7   -3.3   320.9
 18 JAN  2   2:23:00:00     356    5.0      23   -0.1      212.4 -102.7   -1.4  145.7   -3.3   320.3
 18 JAN  3   3:00:00:00     356    5.3      22   -0.7      212.4 -102.7   -1.4  145.7   -3.3   319.8
 18 JAN  3   3:01:00:00     354    5.7      22   -0.7      212.4 -102.7   -1.4  145.7   -3.3   319.3
 18 JAN  3   3:02:00:00     355    5.6      23   -0.3      212.3 -102.7   -1.4  145.7   -3.3   318.7
 18 JAN  3   3:03:00:00     356    5.0      23    0.0      212.3 -102.7   -1.3  145.7   -3.3   318.2
 18 JAN  3   3:04:00:00     356    3.9      25    0.4      212.2 -102.7   -1.3  145.7   -3.3   317.6
 18 JAN  3   3:05:00:00     346    3.1      26    0.3      212.2 -102.7   -1.3  145.7   -3.3   317.1
 18 JAN  3   3:06:00:00     341    2.8      26    0.4      212.1 -102.6   -1.2  145.7   -3.3   316.5
 18 JAN  3   3:07:00:00     344    2.3      27    0.7      212.1 -102.6   -1.2  145.7   -3.3   316.0
 18 JAN  3   3:08:00:00     352    3.2      28    2.8      212.0 -102.6   -1.2  145.7   -3.3   315.4
 18 JAN  3   3:09:00:00     343    3.9      28    2.5      212.0 -102.6   -1.2  145.7   -3.3   314.9
 18 JAN  3   3:10:00:00     347    3.9      28    0.4      211.9 -102.6   -1.1  145.7   -3.3   314.3
 18 JAN  3   3:11:00:00     350    4.8      26    0.1      211.9 -102.6   -1.1  145.7   -3.3   313.8
 18 JAN  3   3:12:00:00     351    4.7      26    0.0      211.8 -102.6   -1.1  145.7   -3.3   313.2
 18 JAN  3   3:13:00:00     351    4.5      24   -0.9      211.8 -102.6   -1.1  145.7   -3.3   312.7
 18 JAN  3   3:14:00:00     348    4.0      23   -0.3      211.8 -102.6   -1.0  145.7   -3.3   312.1
 18 JAN  3   3:15:00:00     350    3.8      23   -0.5      211.7 -102.5   -1.0  145.7   -3.3   311.6
 18 JAN  3   3:16:00:00     344    3.6      25    0.3      211.7 -102.5   -1.0  145.7   -3.3   311.1
 18 JAN  3   3:17:00:00     344    3.5      26    2.0      211.6 -102.5   -1.0  145.7   -3.3   310.5
 18 JAN  3   3:18:00:00     337    3.3      26    2.0      211.6 -102.5   -0.9  145.7   -3.4   309.9
 18 JAN  3   3:19:00:00     334    3.8      25    2.7      211.5 -102.5   -0.9  145.7   -3.4   309.4
 18 JAN  3   3:20:00:00     332    3.5      25    3.0      211.5 -102.5   -0.9  145.8   -3.4   308.8
 18 JAN  3   3:21:00:00     329    3.9      24    3.0      211.4 -102.5   -0.9  145.8   -3.4   308.3
 18 JAN  3   3:22:00:00     334    4.6      25    3.5      211.4 -102.5   -0.8  145.8   -3.4   307.7
 18 JAN  3   3:23:00:00     339    3.5      26    2.6      211.4 -102.4   -0.8  145.8   -3.4   307.2
 18 JAN  4   4:00:00:00     345    2.7      27    2.3      211.3 -102.4   -0.8  145.8   -3.4   306.6
 18 JAN  4   4:01:00:00     339    2.2      25    0.6      211.3 -102.4   -0.8  145.8   -3.4   306.1
 18 JAN  4   4:02:00:00     338    2.4      25    0.2      211.2 -102.4   -0.7  145.8   -3.4   305.6
 18 JAN  4   4:03:00:00     342    2.7      26    1.3      211.2 -102.4   -0.7  145.8   -3.4   305.0
 18 JAN  4   4:04:00:00     336    2.5      25    0.1      211.1 -102.4   -0.7  145.8   -3.4   304.5
 18 JAN  4   4:05:00:00     339    2.8      26    0.6      211.1 -102.4   -0.6  145.8   -3.4   303.9
 18 JAN  4   4:06:00:00     353    3.0      29    1.7      211.0 -102.3   -0.6  145.8   -3.4   303.3
 18 JAN  4   4:07:00:00     358    3.3      25    1.6      211.0 -102.3   -0.6  145.8   -3.4   302.8
 18 JAN  4   4:08:00:00     356    2.2      24    0.8      211.0 -102.3   -0.6  145.8   -3.4   302.2
 18 JAN  4   4:09:00:00     358    1.9      24    0.8      210.9 -102.3   -0.5  145.8   -3.4   301.7
 18 JAN  4   4:10:00:00     353    1.3      26    0.4      210.9 -102.3   -0.5  145.8   -3.4   301.1
 18 JAN  4   4:11:00:00     344    1.1      26    0.1      210.8 -102.3   -0.5  145.8   -3.4   300.6
 18 JAN  4   4:12:00:00     339    1.3      25   -1.0      210.8 -102.2   -0.5  145.8   -3.4   300.1
 18 JAN  4   4:13:00:00     347    1.2      25    0.5      210.7 -102.2   -0.4  145.8   -3.4   299.5
 18 JAN  4   4:14:00:00     352    1.6      23    0.3      210.7 -102.2   -0.4  145.8   -3.4   299.0
 18 JAN  4   4:15:00:00     352    1.1      27    0.0      210.7 -102.2   -0.4  145.8   -3.4   298.4
 18 JAN  4   4:16:00:00     357    2.2      24    0.5      210.6 -102.2   -0.4  145.8   -3.4   297.9
 18 JAN  4   4:17:00:00     358    2.3      25    0.1      210.6 -102.2   -0.3  145.8   -3.4   297.3
 18 JAN  4   4:18:00:00     357    2.4      22    0.2      210.5 -102.1   -0.3  145.8   -3.4   296.8
 18 JAN  4   4:19:00:00     357    2.4      25   -0.2      210.5 -102.1   -0.3  145.8   -3.5   296.2
 18 JAN  4   4:20:00:00     361    2.4      29    1.1      210.4 -102.1   -0.3  145.8   -3.5   295.6
 18 JAN  4   4:21:00:00     361    2.9      30    1.4      210.4 -102.1   -0.2  145.8   -3.5   295.1
 18 JAN  4   4:22:00:00     356    2.8      27    0.6      210.4 -102.1   -0.2  145.8   -3.5   294.6
 18 JAN  4   4:23:00:00     347    2.4      27   -0.1      210.3 -102.0   -0.2  145.8   -3.5   294.0
 18 JAN  5   5:00:00:00     343    2.3      27   -0.8      210.3 -102.0   -0.2  145.8   -3.5   293.5
 18 JAN  5   5:01:00:00     354    2.9      24   -0.1      210.2 -102.0   -0.1  145.8   -3.5   293.0
 18 JAN  5   5:02:00:00     359    2.4      26   -0.1      210.2 -102.0   -0.1  145.8   -3.5   292.4
 18 JAN  5   5:03:00:00     361    2.3      27    0.2      210.2 -102.0   -0.1  145.8   -3.5   291.8
 18 JAN  5   5:04:00:00     349    1.4      29   -1.1      210.1 -101.9   -0.1  145.8   -3.5   291.3
 18 JAN  5   5:05:00:00     352    2.0      28   -0.3      210.1 -101.9    0.0  145.8   -3.5   290.7
 18 JAN  5   5:06:00:00     355    1.8      29   -0.2      210.0 -101.9    0.0  145.8   -3.5   290.2
 18 JAN  5   5:07:00:00     358    1.6      31    0.2      210.0 -101.9    0.0  145.8   -3.6   289.6
 18 JAN  5   5:08:00:00     353    1.3      30   -0.5      210.0 -101.8    0.1  145.8   -3.6   289.1
 18 JAN  5   5:09:00:00     346    1.8      27   -1.3      209.9 -101.8    0.1  145.8   -3.6   288.5
 18 JAN  5   5:10:00:00     343    2.1      26   -1.1      209.9 -101.8    0.1  145.8   -3.6   288.0
 18 JAN  5   5:11:00:00     331    2.6      25   -1.1      209.8 -101.8    0.1  145.8   -3.6   287.5
 18 JAN  5   5:12:00:00     333    1.9      25   -0.9      209.8 -101.8    0.2  145.8   -3.6   286.9
 18 JAN  5   5:13:00:00     330    2.0      25   -1.1      209.7 -101.7    0.2  145.8   -3.6   286.4
 18 JAN  5   5:14:00:00     322    2.4      24   -0.5      209.7 -101.7    0.2  145.8   -3.6   285.8
 18 JAN  5   5:15:00:00     308    3.6      20    0.8      209.7 -101.7    0.2  145.8   -3.6   285.2
 18 JAN  5   5:16:00:00     304    3.8      19    1.3      209.6 -101.7    0.3  145.8   -3.6   284.7
 18 JAN  5   5:17:00:00     299    3.6      19    0.7      209.6 -101.6    0.3  145.8   -3.6   284.1
 18 JAN  5   5:18:00:00     294    4.3      18    1.7      209.5 -101.6    0.3  145.8   -3.6   283.6
 18 JAN  5   5:19:00:00     297    4.8      19    2.6      209.5 -101.6    0.3  145.8   -3.6   283.0
 18 JAN  5   5:20:00:00     300    6.8      19    4.0      209.5 -101.6    0.4  145.8   -3.6   282.5
 18 JAN  5   5:21:00:00     300    6.2      19    3.4      209.4 -101.5    0.4  145.8   -3.6   282.0
 18 JAN  5   5:22:00:00     300    5.8      19    3.0      209.4 -101.5    0.4  145.8   -3.6   281.4
 18 JAN  5   5:23:00:00     295    6.2      19    3.1      209.4 -101.5    0.4  145.8   -3.6   280.9
 18 JAN  6   6:00:00:00     295    5.7      18    3.0      209.3 -101.5    0.5  145.8   -3.6   280.3
 18 JAN  6   6:01:00:00     287    4.4      17    2.3      209.3 -101.4    0.5  145.8   -3.6   279.8
 18 JAN  6   6:02:00:00     283    4.0      17    1.5      209.2 -101.4    0.5  145.8   -3.6   279.2
 18 JAN  6   6:03:00:00     288    3.5      17    2.0      209.2 -101.4    0.5  145.8   -3.6   278.6
 18 JAN  6   6:04:00:00     290    3.9      18    2.3      209.2 -101.3    0.6  145.8   -3.6   278.1
 18 JAN  6   6:05:00:00     292    3.7      18    2.1      209.1 -101.3    0.6  145.8   -3.6   277.5
 18 JAN  6   6:06:00:00     291    4.1      19    1.2      209.1 -101.3    0.6  145.8   -3.6   277.0
 18 JAN  6   6:07:00:00     288    4.0      17    1.1      209.0 -101.3    0.6  145.8   -3.6   276.5
 18 JAN  6   6:08:00:00     288    4.2      17    1.3      209.0 -101.2    0.7  145.8   -3.7   275.9
 18 JAN  6   6:09:00:00     289    3.7      18    1.5      209.0 -101.2    0.7  145.8   -3.7   275.4
 18 JAN  6   6:10:00:00     288    3.7      18    1.6      208.9 -101.2    0.7  145.8   -3.7   274.8
 18 JAN  6   6:11:00:00     298    2.8      19    2.0      208.9 -101.1    0.8  145.8   -3.7   274.3
 18 JAN  6   6:12:00:00     290    2.7      18    1.3      208.8 -101.1    0.8  145.8   -3.7   273.7
 18 JAN  6   6:13:00:00     288    3.1      17    1.7      208.8 -101.1    0.8  145.8   -3.7   273.2
 18 JAN  6   6:14:00:00     289    3.2      17    2.1      208.8 -101.0    0.8  145.8   -3.7   272.6
 18 JAN  6   6:15:00:00     285    3.8      17    2.9      208.7 -101.0    0.9  145.8   -3.7   272.1
 18 JAN  6   6:16:00:00     287    2.6      17    1.5      208.7 -101.0    0.9  145.8   -3.7   271.5
 18 JAN  6   6:17:00:00     289    2.2      18    0.4      208.7 -101.0    0.9  145.8   -3.7   271.0
 18 JAN  6   6:18:00:00     287    2.5      17   -1.2      208.6 -100.9    0.9  145.8   -3.7   270.4
 18 JAN  6   6:19:00:00     288    2.2      17   -1.1      208.6 -100.9    1.0  145.8   -3.7   269.9
 18 JAN  6   6:20:00:00     289    1.8      18   -0.8      208.5 -100.9    1.0  145.8   -3.7   269.3
 18 JAN  6   6:21:00:00     289    1.5      18   -0.5      208.5 -100.8    1.0  145.8   -3.7   268.8
 18 JAN  6   6:22:00:00     291    1.4      18   -0.8      208.5 -100.8    1.0  145.8   -3.7   268.2
 18 JAN  6   6:23:00:00     293    1.0      19   -0.8      208.4 -100.8    1.1  145.8   -3.7   267.7
 18 JAN  7   7:00:00:00     294    1.0      19    0.2      208.4 -100.7    1.1  145.8   -3.7   267.1
 18 JAN  7   7:01:00:00     291    1.1      19    1.3      208.4 -100.7    1.1  145.8   -3.7   266.6
 18 JAN  7   7:02:00:00     291    1.3      18    2.0      208.3 -100.7    1.1  145.8   -3.7   266.0
 18 JAN  7   7:03:00:00     289    1.2      18    1.9      208.3 -100.6    1.2  145.8   -3.7   265.5
 18 JAN  7   7:04:00:00     286    2.2      17    3.2      208.2 -100.6    1.2  145.8   -3.7   264.9
 18 JAN  7   7:05:00:00     287    1.9      17    2.8      208.2 -100.6    1.2  145.8   -3.7   264.4
 18 JAN  7   7:06:00:00     287    1.8      17    2.4      208.2 -100.5    1.2  145.8   -3.7   263.8
 18 JAN  7   7:07:00:00     285    1.8      17    2.0      208.1 -100.5    1.3  145.8   -3.7   263.3
 18 JAN  7   7:08:00:00     288    1.1      18    0.1      208.1 -100.4    1.3  145.8   -3.7   262.8
 18 JAN  7   7:09:00:00     289    0.9      18    0.3      208.1 -100.4    1.3  145.8   -3.8   262.2
 18 JAN  7   7:10:00:00     290    0.7      18    0.4      208.0 -100.4    1.3  145.8   -3.8   261.7
 18 JAN  7   7:11:00:00     288    1.1      18    0.1      208.0 -100.3    1.4  145.8   -3.8   261.1
 18 JAN  7   7:12:00:00     285    1.4      17    1.2      208.0 -100.3    1.4  145.8   -3.8   260.5
 18 JAN  7   7:13:00:00     286    1.3      17    1.1      207.9 -100.3    1.4  145.8   -3.8   260.0
 18 JAN  7   7:14:00:00     290    1.6      18    0.3      207.9 -100.2    1.4  145.8   -3.8   259.4
 18 JAN  7   7:15:00:00     290    2.3      18   -1.7      207.8 -100.2    1.5  145.8   -3.8   258.9
 18 JAN  7   7:16:00:00     289    2.6      18   -3.2      207.8 -100.2    1.5  145.8   -3.8   258.3
 18 JAN  7   7:17:00:00     288    2.9      17   -2.4      207.8 -100.1    1.5  145.8   -3.8   257.8
 18 JAN  7   7:18:00:00     287    3.4      17   -2.8      207.7 -100.1    1.6  145.8   -3.8   257.3
 18 JAN  7   7:19:00:00     287    3.1      17   -1.8      207.7 -100.0    1.6  145.8   -3.8   256.7
 18 JAN  7   7:20:00:00     290    2.6      18   -0.6      207.7 -100.0    1.6  145.8   -3.8   256.2
 18 JAN  7   7:21:00:00     293    2.6      19   -0.7      207.6 -100.0    1.6  145.8   -3.8   255.6
 18 JAN  7   7:22:00:00     303    2.6      19   -0.8      207.6  -99.9    1.7  145.8   -3.8   255.1
 18 JAN  7   7:23:00:00     307    2.5      20   -2.9      207.6  -99.9    1.7  145.8   -3.8   254.5
 18 JAN  8   8:00:00:00     314    1.6      21   -0.6      207.5  -99.8    1.7  145.8   -3.8   253.9
 18 JAN  8   8:01:00:00     298    2.7      19    0.9      207.5  -99.8    1.7  145.8   -3.8   253.4
 18 JAN  8   8:02:00:00     293    2.0      19    0.0      207.4  -99.8    1.8  145.8   -3.8   252.8
 18 JAN  8   8:03:00:00     292    2.7      18   -1.3      207.4  -99.7    1.8  145.8   -3.8   252.3
 18 JAN  8   8:04:00:00     297    1.7      19   -0.4      207.4  -99.7    1.8  145.8   -3.8   251.8
 18 JAN  8   8:05:00:00     300    1.9      19   -1.6      207.3  -99.6    1.8  145.8   -3.8   251.2
 18 JAN  8   8:06:00:00     338   37.5      23   -8.9      207.3  -99.6    1.9  145.8   -3.8   250.7
 18 JAN  8   8:07:00:00     333   37.5      22   -9.5      207.3  -99.5    1.9  145.8   -3.8   250.1
 18 JAN  8   8:08:00:00     339   45.8      24   -9.3      207.2  -99.5    1.9  145.8   -3.8   249.6
 18 JAN  8   8:09:00:00     346   30.9      26   -5.6      207.2  -99.5    1.9  145.8   -3.8   249.0
 18 JAN  8   8:10:00:00     351   26.2      26   -5.2      207.2  -99.4    2.0  145.8   -3.8   248.5
 18 JAN  8   8:11:00:00     352   28.1      27   -6.3      207.1  -99.4    2.0  145.8   -3.9   247.9
 18 JAN  8   8:12:00:00     372   17.5      33   -4.1      207.1  -99.3    2.0  145.8   -3.9   247.4
 18 JAN  8   8:13:00:00     403   10.7      46   -0.3      207.1  -99.3    2.0  145.8   -3.9   246.8
 18 JAN  8   8:14:00:00     384   19.3      42    0.7      207.0  -99.2    2.1  145.8   -3.9   246.3
 18 JAN  8   8:15:00:00     410   13.7      48    3.1      207.0  -99.2    2.1  145.8   -3.9   245.7
 18 JAN  8   8:16:00:00     466    8.6      50    4.7      207.0  -99.2    2.1  145.8   -3.9   245.2
 18 JAN  8   8:17:00:00     484   10.3      45    5.0      206.9  -99.1    2.1  145.8   -3.9   244.7
 18 JAN  8   8:18:00:00     492    9.9      57    5.3      206.9  -99.1    2.2  145.8   -3.9   244.1
 18 JAN  8   8:19:00:00     500   11.9      60    5.9      206.9  -99.0    2.2  145.8   -3.9   243.5
 18 JAN  8   8:20:00:00     499   12.9      57    6.5      206.8  -99.0    2.2  145.8   -3.9   243.0
 18 JAN  8   8:21:00:00     482   11.6      50    5.6      206.8  -98.9    2.2  145.8   -3.9   242.4
 18 JAN  8   8:22:00:00     493    9.4      49    4.2      206.8  -98.9    2.3  145.8   -3.9   241.9
 18 JAN  8   8:23:00:00     489    8.6      47    2.8      206.7  -98.8    2.3  145.8   -3.9   241.3
 18 JAN  9   9:00:00:00     506    5.2      46    0.5      206.7  -98.8    2.3  145.8   -4.0   240.8
 18 JAN  9   9:01:00:00     524    3.1      49   -1.7      206.7  -98.7    2.3  145.8   -4.0   240.2
 18 JAN  9   9:02:00:00     526    3.1      48   -0.8      206.6  -98.7    2.4  145.8   -4.0   239.7
 18 JAN  9   9:03:00:00     497    3.7      44   -0.6      206.6  -98.6    2.4  145.8   -4.0   239.2
 18 JAN  9   9:04:00:00     532    2.8      50   -1.4      206.6  -98.6    2.4  145.8   -4.0   238.6
 18 JAN  9   9:05:00:00     484    3.9      40   -1.1      206.5  -98.5    2.4  145.8   -4.0   238.1
 18 JAN  9   9:06:00:00     463    4.4      35   -1.9      206.5  -98.5    2.5  145.8   -4.0   237.5
 18 JAN  9   9:07:00:00     463    4.1      36   -1.8      206.5  -98.4    2.5  145.8   -4.0   237.0
 18 JAN  9   9:08:00:00     468    3.7      38   -1.0      206.4  -98.4    2.5  145.8   -4.0   236.4
 18 JAN  9   9:09:00:00     465    3.7      35    1.1      206.4  -98.3    2.5  145.8   -4.0   235.8
 18 JAN  9   9:10:00:00     464    3.5      34    1.8      206.4  -98.3    2.6  145.8   -4.0   235.3
 18 JAN  9   9:11:00:00     460    3.2      33    0.6      206.3  -98.2    2.6  145.8   -4.0   234.7
 18 JAN  9   9:12:00:00     461    2.9      33    0.2      206.3  -98.2    2.6  145.8   -4.0   234.2
 18 JAN  9   9:13:00:00     460    2.9      32    0.1      206.3  -98.1    2.6  145.8   -4.0   233.7
 18 JAN  9   9:14:00:00     458    2.5      34    0.4      206.2  -98.1    2.7  145.8   -4.0   233.1
 18 JAN  9   9:15:00:00     457    3.1      31    0.3      206.2  -98.0    2.7  145.8   -4.0   232.6
 18 JAN  9   9:16:00:00     449    3.6      25    1.3      206.2  -98.0    2.7  145.8   -4.0   232.0
 18 JAN  9   9:17:00:00     447    3.9      23    1.2      206.1  -97.9    2.7  145.8   -4.0   231.5
 18 JAN  9   9:18:00:00     450    3.4      28    0.3      206.1  -97.9    2.8  145.8   -4.0   230.9
 18 JAN  9   9:19:00:00     455    3.0      33   -0.2      206.1  -97.8    2.8  145.8   -4.0   230.4
 18 JAN  9   9:20:00:00     456    3.6      31   -0.1      206.0  -97.8    2.8  145.8   -4.0   229.8
 18 JAN  9   9:21:00:00     456    3.3      32   -1.0      206.0  -97.7    2.8  145.8   -4.0   229.2
 18 JAN  9   9:22:00:00     454    4.2      31   -0.1      206.0  -97.7    2.9  145.8   -4.0   228.7
 18 JAN  9   9:23:00:00     451    3.6      34   -2.5      205.9  -97.6    2.9  145.8   -4.0   228.2
 18 JAN 10  10:00:00:00     457    3.1      34   -2.1      205.9  -97.6    2.9  145.8   -4.0   227.6
 18 JAN 10  10:01:00:00     465    2.6      34   -1.6      205.9  -97.5    3.0  145.8   -4.0   227.1
 18 JAN 10  10:02:00:00     466    2.0      39   -1.3      205.8  -97.5    3.0  145.8   -4.1   226.5
 18 JAN 10  10:03:00:00     459    2.3      38   -0.8      205.8  -97.4    3.0  145.8   -4.1   226.0
 18 JAN 10  10:04:00:00     454    2.8      37   -0.2      205.8  -97.3    3.0  145.8   -4.1   225.4
 18 JAN 10  10:05:00:00     451    2.3      39   -0.1      205.7  -97.3    3.1  145.8   -4.1   224.9
 18 JAN 10  10:06:00:00     447    2.4      40    0.3      205.7  -97.2    3.1  145.8   -4.1   224.3
 18 JAN 10  10:07:00:00     446    2.0      40   -1.2      205.7  -97.2    3.1  145.8   -4.1   223.8
 18 JAN 10  10:08:00:00     444    2.2      39   -0.4      205.6  -97.1    3.1  145.8   -4.1   223.2
 18 JAN 10  10:09:00:00     437    2.0      41   -1.2      205.6  -97.1    3.2  145.8   -4.1   222.7
 18 JAN 10  10:10:00:00     432    2.0      40   -0.8      205.6  -97.0    3.2  145.8   -4.1   222.1
 18 JAN 10  10:11:00:00     434    2.2      40   -0.4      205.5  -97.0    3.2  145.8   -4.1   221.6
 18 JAN 10  10:12:00:00     434    2.0      40    0.2      205.5  -96.9    3.2  145.8   -4.1   221.0
 18 JAN 10  10:13:00:00     409    2.4      35    0.8      205.5  -96.8    3.3  145.8   -4.1   220.5
 18 JAN 10  10:14:00:00     385    3.1      30    0.8      205.4  -96.8    3.3  145.8   -4.1   220.0
 18 JAN 10  10:15:00:00     382    3.0      28    1.1      205.4  -96.7    3.3  145.8   -4.1   219.4
 18 JAN 10  10:16:00:00     382    3.2      29    1.0      205.4  -96.7    3.3  145.8   -4.1   218.8
 18 JAN 10  10:17:00:00     385    3.6      30    1.4      205.3  -96.6    3.4  145.8   -4.1   218.3
 18 JAN 10  10:18:00:00     375    3.2      26    0.9      205.3  -96.6    3.4  145.8   -4.1   217.7
 18 JAN 10  10:19:00:00     376    3.3      26    1.4      205.3  -96.5    3.4  145.8   -4.1   217.2
 18 JAN 10  10:20:00:00     370    3.5      24    1.2      205.3  -96.4    3.4  145.8   -4.1   216.6
 18 JAN 10  10:21:00:00     369    3.3      24    0.7      205.2  -96.4    3.5  145.8   -4.1   216.1
 18 JAN 10  10:22:00:00     371    3.1      24    0.8      205.2  -96.3    3.5  145.8   -4.1   215.5
 18 JAN 10  10:23:00:00     366    3.4      23    1.0      205.2  -96.3    3.5  145.8   -4.1   215.0
 18 JAN 11  11:00:00:00     371    3.6      24    1.1      205.1  -96.2    3.5  145.8   -4.1   214.5
 18 JAN 11  11:01:00:00     375    3.3      25    1.4      205.1  -96.1    3.5  145.8   -4.1   213.9
 18 JAN 11  11:02:00:00     374    3.7      25    1.3      205.1  -96.1    3.6  145.8   -4.1   213.4
 18 JAN 11  11:03:00:00     369    3.9      24    1.4      205.0  -96.0    3.6  145.8   -4.1   212.8
 18 JAN 11  11:04:00:00     368    4.3      24    0.7      205.0  -95.9    3.6  145.8   -4.2   212.2
 18 JAN 11  11:05:00:00     366    4.0      24    0.6      205.0  -95.9    3.6  145.8   -4.2   211.7
 18 JAN 11  11:06:00:00     360    2.8      25    0.4      204.9  -95.8    3.7  145.8   -4.2   211.1
 18 JAN 11  11:07:00:00     359    2.3      27    0.7      204.9  -95.8    3.7  145.8   -4.2   210.6
 18 JAN 11  11:08:00:00     356    2.0      29    0.9      204.9  -95.7    3.7  145.8   -4.2   210.0
 18 JAN 11  11:09:00:00     355    2.0      27    0.7      204.8  -95.6    3.7  145.8   -4.2   209.5
 18 JAN 11  11:10:00:00     362    4.0      24    0.8      204.8  -95.6    3.8  145.8   -4.2   209.0
 18 JAN 11  11:11:00:00     367    3.8      25    0.9      204.8  -95.5    3.8  145.8   -4.2   208.4
 18 JAN 11  11:12:00:00     369    3.3      26    1.0      204.8  -95.4    3.8  145.8   -4.2   207.9
 18 JAN 11  11:13:00:00     370    2.7      29    1.4      204.7  -95.4    3.8  145.8   -4.2   207.3
 18 JAN 11  11:14:00:00     367    1.9      33    1.6      204.7  -95.3    3.9  145.8   -4.2   206.8
 18 JAN 11  11:15:00:00     363    1.9      32    1.6      204.7  -95.3    3.9  145.8   -4.2   206.2
 18 JAN 11  11:16:00:00     358    2.1      30    1.7      204.6  -95.2    3.9  145.8   -4.2   205.7
 18 JAN 11  11:17:00:00     353    2.1      29    1.7      204.6  -95.1    3.9  145.8   -4.2   205.1
 18 JAN 11  11:18:00:00     351    2.2      30    1.9      204.6  -95.1    4.0  145.8   -4.2   204.5
 18 JAN 11  11:19:00:00     347    1.8      29    1.7      204.5  -95.0    4.0  145.8   -4.2   204.0
 18 JAN 11  11:20:00:00     344    1.8      28    2.3      204.5  -94.9    4.0  145.8   -4.2   203.5
 18 JAN 11  11:21:00:00     346    1.9      29    2.5      204.5  -94.9    4.0  145.8   -4.2   202.9
 18 JAN 11  11:22:00:00     346    1.8      29    2.3      204.4  -94.8    4.1  145.8   -4.2   202.4
 18 JAN 11  11:23:00:00     338    2.0      26    2.8      204.4  -94.7    4.1  145.8   -4.2   201.8
 18 JAN 12  12:00:00:00     336    2.2      26    2.5      204.4  -94.7    4.1  145.8   -4.2   201.3
 18 JAN 12  12:01:00:00     334    2.6      27    2.1      204.4  -94.6    4.1  145.8   -4.2   200.7
 18 JAN 12  12:02:00:00     331    2.5      26    1.9      204.3  -94.5    4.2  145.8   -4.2   200.2
 18 JAN 12  12:03:00:00     325    2.5      25    1.4      204.3  -94.5    4.2  145.8   -4.2   199.6
 18 JAN 12  12:04:00:00     329    2.6      25    1.4      204.3  -94.4    4.2  145.8   -4.2   199.1
 18 JAN 12  12:05:00:00     328    3.0      24    2.4      204.2  -94.3    4.2  145.8   -4.2   198.5
 18 JAN 12  12:06:00:00     333    2.4      25    3.4      204.2  -94.3    4.3  145.8   -4.2   198.0
 18 JAN 12  12:07:00:00     331    2.4      24    3.8      204.2  -94.2    4.3  145.8   -4.3   197.4
 18 JAN 12  12:08:00:00     326    2.3      23    2.1      204.1  -94.1    4.3  145.8   -4.3   196.9
 18 JAN 12  12:09:00:00     318    2.0      22    1.6      204.1  -94.1    4.3  145.8   -4.3   196.4
 18 JAN 12  12:10:00:00     307    2.0      20    1.2      204.1  -94.0    4.4  145.8   -4.3   195.8
 18 JAN 12  12:11:00:00     303    2.1      20    0.6      204.0  -93.9    4.4  145.8   -4.3   195.3
 18 JAN 12  12:12:00:00     296    3.6      19    0.9      204.0  -93.8    4.4  145.8   -4.3   194.7
 18 JAN 12  12:13:00:00     294    3.5      19    0.1      204.0  -93.8    4.4  145.8   -4.3   194.1
 18 JAN 12  12:14:00:00     288    3.2      18    0.3      204.0  -93.7    4.5  145.8   -4.3   193.6
 18 JAN 12  12:15:00:00     291    3.7      18   -0.3      203.9  -93.6    4.5  145.8   -4.3   193.0
 18 JAN 12  12:16:00:00     293    3.9      18   -0.8      203.9  -93.6    4.5  145.8   -4.3   192.5
 18 JAN 12  12:17:00:00     293    4.4      18    0.5      203.9  -93.5    4.5  145.8   -4.3   191.9
 18 JAN 12  12:18:00:00     303    4.0      19    0.1      203.8  -93.4    4.6  145.8   -4.3   191.4
 18 JAN 12  12:19:00:00     302    4.0      19   -0.2      203.8  -93.3    4.6  145.8   -4.3   190.9
 18 JAN 12  12:20:00:00     294    4.5      18   -0.6      203.8  -93.3    4.6  145.8   -4.4   190.3
 18 JAN 12  12:21:00:00     290    4.1      18   -1.6      203.7  -93.2    4.6  145.8   -4.4   189.8
 18 JAN 12  12:22:00:00     300    3.7      19   -1.1      203.7  -93.1    4.7  145.8   -4.4   189.2
 18 JAN 12  12:23:00:00     307    3.7      20   -0.3      203.7  -93.1    4.7  145.8   -4.4   188.7
 18 JAN 13  13:00:00:00     299    3.4      19   -0.1      203.7  -93.0    4.7  145.8   -4.4   188.1
 18 JAN 13  13:01:00:00     301    3.6      19   -0.4      203.6  -92.9    4.7  145.8   -4.4   187.5
 18 JAN 13  13:02:00:00     301    3.4      19    1.1      203.6  -92.8    4.7  145.8   -4.4   187.0
 18 JAN 13  13:03:00:00     310    4.0      20    1.9      203.6  -92.8    4.8  145.8   -4.4   186.4
 18 JAN 13  13:04:00:00     312    4.6      21    2.5      203.5  -92.7    4.8  145.8   -4.4   185.9
 18 JAN 13  13:05:00:00     310    4.7      21    2.4      203.5  -92.6    4.8  145.8   -4.4   185.4
 18 JAN 13  13:06:00:00     295    4.5      19    0.6      203.5  -92.5    4.8  145.8   -4.4   184.8
 18 JAN 13  13:07:00:00     294    4.7      19    1.0      203.5  -92.5    4.9  145.8   -4.4   184.3
 18 JAN 13  13:08:00:00     305    5.5      19    0.5      203.4  -92.4    4.9  145.8   -4.4   183.7
 18 JAN 13  13:09:00:00     302    5.3      19    0.1      203.4  -92.3    4.9  145.8   -4.4   183.2
 18 JAN 13  13:10:00:00     302    4.6      19    0.4      203.4  -92.2    4.9  145.8   -4.4   182.6
 18 JAN 13  13:11:00:00     299    6.0      19    1.8      203.3  -92.2    5.0  145.8   -4.4   182.1
 18 JAN 13  13:12:00:00     316    8.5      19    3.2      203.3  -92.1    5.0  145.8   -4.4   181.5
 18 JAN 13  13:13:00:00     327    3.8      22   -2.5      203.3  -92.0    5.0  145.8   -4.4   180.9
 18 JAN 13  13:14:00:00     328    3.0      22   -1.3      203.2  -91.9    5.0  145.8   -4.4   180.4
 18 JAN 13  13:15:00:00      -1   -1.0      -1   99.0      203.2  -91.9    5.1  145.8   -4.4   179.9
 18 JAN 13  13:16:00:00      -1   -1.0      -1   99.0      203.2  -91.8    5.1  145.8   -4.4   179.3
 18 JAN 13  13:17:00:00      -1   -1.0      -1   99.0      203.2  -91.7    5.1  145.8   -4.4   178.8
 18 JAN 13  13:18:00:00      -1   -1.0      -1   99.0      203.1  -91.6    5.1  145.9   -4.4   178.2
 18 JAN 13  13:19:00:00      -1   -1.0      -1   99.0      203.1  -91.5    5.2  145.9   -4.4   177.7
 18 JAN 13  13:20:00:00      -1   -1.0      -1   99.0      203.1  -91.5    5.2  145.9   -4.4   177.1
 18 JAN 13  13:21:00:00      -1   -1.0      -1   99.0      203.0  -91.4    5.2  145.9   -4.4   176.6
 18 JAN 13  13:22:00:00      -1   -1.0      -1   99.0      203.0  -91.3    5.2  145.9   -4.4   176.0
 18 JAN 13  13:23:00:00     572   15.0      80    3.2      203.0  -91.2    5.3  145.9   -4.4   175.5
 18 JAN 14  14:00:00:00     559   13.4      78    1.6      203.0  -91.2    5.3  145.9   -4.5   174.9
 18 JAN 14  14:01:00:00     519   14.1      77    0.4      202.9  -91.1    5.3  145.9   -4.5   174.4
 18 JAN 14  14:02:00:00     527   12.4      80    0.5      202.9  -91.0    5.3  145.9   -4.5   173.8
 18 JAN 14  14:03:00:00     544    9.4      76    0.9      202.9  -90.9    5.3  145.9   -4.5   173.3
 18 JAN 14  14:04:00:00     541    8.4      67    0.9      202.8  -90.8    5.4  145.9   -4.5   172.7
 18 JAN 14  14:05:00:00     545    6.9      57    0.5      202.8  -90.8    5.4  145.9   -4.5   172.2
 18 JAN 14  14:06:00:00     549    5.2      53    0.7      202.8  -90.7    5.4  145.9   -4.5   171.7
 18 JAN 14  14:07:00:00     552    4.3      53    1.6      202.8  -90.6    5.4  145.9   -4.5   171.1
 18 JAN 14  14:08:00:00     546    4.5      51    2.2      202.7  -90.5    5.5  145.9   -4.5   170.5
 18 JAN 14  14:09:00:00     550    3.9      49    0.7      202.7  -90.4    5.5  145.9   -4.5   170.0
 18 JAN 14  14:10:00:00     562    2.7      51   -0.4      202.7  -90.4    5.5  145.9   -4.5   169.4
 18 JAN 14  14:11:00:00     565    2.3      53   -0.6      202.6  -90.3    5.5  145.9   -4.5   168.9
 18 JAN 14  14:12:00:00     555    2.2      53   -0.1      202.6  -90.2    5.6  145.9   -4.5   168.3
 18 JAN 14  14:13:00:00     549    2.4      51    0.9      202.6  -90.1    5.6  145.9   -4.5   167.8
 18 JAN 14  14:14:00:00     530    2.4      48   -0.2      202.6  -90.0    5.6  145.9   -4.5   167.2
 18 JAN 14  14:15:00:00     513    2.4      45    0.1      202.5  -89.9    5.6  145.9   -4.5   166.7
 18 JAN 14  14:16:00:00     485    2.8      41    0.5      202.5  -89.9    5.7  145.9   -4.5   166.2
 18 JAN 14  14:17:00:00     476    3.2      38    0.6      202.5  -89.8    5.7  145.9   -4.5   165.6
 18 JAN 14  14:18:00:00     470    3.5      35    0.4      202.4  -89.7    5.7  145.9   -4.5   165.1
 18 JAN 14  14:19:00:00     467    3.7      33    0.4      202.4  -89.6    5.7  145.9   -4.5   164.5
 18 JAN 14  14:20:00:00     469    3.4      35    0.6      202.4  -89.5    5.7  145.9   -4.5   164.0
 18 JAN 14  14:21:00:00     465    3.0      35    0.5      202.4  -89.4    5.8  145.9   -4.5   163.4
 18 JAN 14  14:22:00:00     461    3.4      35    0.5      202.3  -89.4    5.8  145.9   -4.5   162.8
 18 JAN 14  14:23:00:00     455    3.7      32    0.1      202.3  -89.3    5.8  145.9   -4.5   162.3
 18 JAN 15  15:00:00:00     454    3.5      36    0.1      202.3  -89.2    5.8  145.9   -4.5   161.7
 18 JAN 15  15:01:00:00     453    3.7      35   -0.2      202.2  -89.1    5.9  145.9   -4.5   161.2
 18 JAN 15  15:02:00:00     455    4.7      32    0.3      202.2  -89.0    5.9  145.9   -4.5   160.7
 18 JAN 15  15:03:00:00     463    5.4      32    1.1      202.2  -88.9    5.9  145.9   -4.6   160.1
 18 JAN 15  15:04:00:00     460    5.2      33    0.8      202.2  -88.8    5.9  145.9   -4.6   159.6
 18 JAN 15  15:05:00:00     459    4.8      31   -0.3      202.1  -88.8    6.0  145.9   -4.6   159.0
 18 JAN 15  15:06:00:00     459    4.3      32    0.4      202.1  -88.7    6.0  145.9   -4.6   158.5
 18 JAN 15  15:07:00:00     458    4.2      33    0.3      202.1  -88.6    6.0  145.9   -4.6   157.9
 18 JAN 15  15:08:00:00     454    3.7      34    0.1      202.0  -88.5    6.0  145.9   -4.6   157.4
 18 JAN 15  15:09:00:00     454    3.8      33    0.0      202.0  -88.4    6.0  145.9   -4.6   156.8
 18 JAN 15  15:10:00:00     449    3.3      33   -0.2      202.0  -88.3    6.1  145.9   -4.6   156.2
 18 JAN 15  15:11:00:00     441    2.9      34   -0.3      202.0  -88.2    6.1  145.9   -4.6   155.7
 18 JAN 15  15:12:00:00     442    3.3      33   -0.6      201.9  -88.2    6.1  145.9   -4.6   155.2
 18 JAN 15  15:13:00:00     447    3.6      31    0.5      201.9  -88.1    6.1  145.9   -4.6   154.6
 18 JAN 15  15:14:00:00     448    3.6      29    0.4      201.9  -88.0    6.2  145.9   -4.6   154.1
 18 JAN 15  15:15:00:00     449    4.3      25    0.4      201.8  -87.9    6.2  145.9   -4.6   153.6
 18 JAN 15  15:16:00:00     446    3.8      31    0.1      201.8  -87.8    6.2  145.9   -4.6   153.0
 18 JAN 15  15:17:00:00     446    4.3      28    0.5      201.8  -87.7    6.2  145.9   -4.6   152.4
 18 JAN 15  15:18:00:00     445    3.9      31    0.7      201.8  -87.6    6.3  145.9   -4.6   151.9
 18 JAN 15  15:19:00:00      -1   -1.0      -1   99.0      201.7  -87.5    6.3  145.9   -4.6   151.3
 18 JAN 15  15:20:00:00      -1   -1.0      -1   99.0      201.7  -87.4    6.3  145.9   -4.6   150.8
 18 JAN 15  15:21:00:00      -1   -1.0      -1   99.0      201.7  -87.4    6.3  145.9   -4.6   150.2
 18 JAN 15  15:22:00:00     427    4.3      35   -1.1      201.6  -87.3    6.3  145.9   -4.6   149.7
 18 JAN 15  15:23:00:00     426    4.1      34   -1.3      201.6  -87.2    6.4  145.9   -4.6   149.1
 18 JAN 16  16:00:00:00     422    4.0      33   -1.1      201.6  -87.1    6.4  145.9   -4.6   148.6
 18 JAN 16  16:01:00:00     422    3.7      35   -0.3      201.6  -87.0    6.4  145.9   -4.6   148.1
 18 JAN 16  16:02:00:00     418    3.5      33    0.2      201.5  -86.9    6.4  145.9   -4.6   147.5
 18 JAN 16  16:03:00:00     423    3.1      35    0.2      201.5  -86.8    6.5  145.9   -4.6   147.0
 18 JAN 16  16:04:00:00     416    3.2      35    0.1      201.5  -86.7    6.5  145.9   -4.6   146.4
 18 JAN 16  16:05:00:00     407    2.8      33    0.1      201.4  -86.6    6.5  145.9   -4.6   145.8
 18 JAN 16  16:06:00:00     410    2.6      34    0.4      201.4  -86.5    6.5  145.9   -4.6   145.3
 18 JAN 16  16:07:00:00     404    2.6      32    0.1      201.4  -86.4    6.6  145.9   -4.6   144.7
 18 JAN 16  16:08:00:00     399    2.7      30   -0.6      201.4  -86.4    6.6  145.9   -4.7   144.2
 18 JAN 16  16:09:00:00     392    2.9      29   -0.7      201.3  -86.3    6.6  145.9   -4.7   143.6
 18 JAN 16  16:10:00:00     397    2.7      30   -1.5      201.3  -86.2    6.6  145.9   -4.7   143.1
 18 JAN 16  16:11:00:00     380    3.0      26   -0.8      201.3  -86.1    6.6  145.9   -4.7   142.6
 18 JAN 16  16:12:00:00     362    3.7      22   -1.2      201.3  -86.0    6.7  145.9   -4.7   142.0
 18 JAN 16  16:13:00:00     356    3.9      21   -0.6      201.2  -85.9    6.7  145.9   -4.7   141.5
 18 JAN 16  16:14:00:00     351    3.9      20   -0.2      201.2  -85.8    6.7  145.9   -4.7   140.9
 18 JAN 16  16:15:00:00     351    3.8      20    0.6      201.2  -85.7    6.7  145.9   -4.7   140.4
 18 JAN 16  16:16:00:00     351    3.9      20    0.6      201.1  -85.6    6.8  145.9   -4.7   139.8
 18 JAN 16  16:17:00:00     349    3.1      22    0.7      201.1  -85.5    6.8  145.9   -4.7   139.2
 18 JAN 16  16:18:00:00     344    1.9      24    0.6      201.1  -85.4    6.8  145.9   -4.7   138.7
 18 JAN 16  16:19:00:00     343    1.9      25    0.0      201.1  -85.3    6.8  145.9   -4.7   138.1
 18 JAN 16  16:20:00:00     332    1.7      24    0.3      201.0  -85.2    6.8  145.9   -4.7   137.6
 18 JAN 16  16:21:00:00     333    1.8      24    0.9      201.0  -85.1    6.9  145.9   -4.7   137.1
 18 JAN 16  16:22:00:00     333    1.6      24    1.2      201.0  -85.0    6.9  145.9   -4.8   136.5
 18 JAN 16  16:23:00:00     333    1.6      24    1.3      201.0  -84.9    6.9  145.9   -4.8   136.0
 18 JAN 17  17:00:00:00     329    1.8      23    1.1      200.9  -84.9    6.9  145.9   -4.8   135.4
 18 JAN 17  17:01:00:00     330    2.0      24    1.6      200.9  -84.8    7.0  145.9   -4.8   134.9
 18 JAN 17  17:02:00:00     331    2.3      24    2.4      200.9  -84.7    7.0  145.9   -4.8   134.3
 18 JAN 17  17:03:00:00     332    2.1      24    2.0      200.8  -84.6    7.0  145.9   -4.8   133.8
 18 JAN 17  17:04:00:00     334    1.9      25    2.8      200.8  -84.5    7.0  145.9   -4.8   133.2
 18 JAN 17  17:05:00:00     333    2.1      24    3.3      200.8  -84.4    7.0  145.9   -4.8   132.7
 18 JAN 17  17:06:00:00     333    1.7      24    2.0      200.8  -84.3    7.1  145.9   -4.8   132.1
 18 JAN 17  17:07:00:00     328    1.8      23    1.8      200.7  -84.2    7.1  145.9   -4.8   131.6
 18 JAN 17  17:08:00:00     318    2.0      22    1.3      200.7  -84.1    7.1  145.9   -4.8   131.0
 18 JAN 17  17:09:00:00     316    2.0      21    1.5      200.7  -84.0    7.1  145.9   -4.8   130.5
 18 JAN 17  17:10:00:00     308    2.4      20    1.5      200.6  -83.9    7.2  145.9   -4.8   129.9
 18 JAN 17  17:11:00:00     303    2.3      19    0.6      200.6  -83.8    7.2  145.9   -4.8   129.4
 18 JAN 17  17:12:00:00     307    2.4      20    0.8      200.6  -83.7    7.2  145.9   -4.8   128.8
 18 JAN 17  17:13:00:00     308    2.3      20    0.1      200.6  -83.6    7.2  145.9   -4.8   128.3
 18 JAN 17  17:14:00:00     312    1.9      21    0.2      200.5  -83.5    7.2  145.9   -4.8   127.7
 18 JAN 17  17:15:00:00     306    2.3      19    0.3      200.5  -83.4    7.3  145.9   -4.8   127.2
 18 JAN 17  17:16:00:00     301    2.4      19    0.2      200.5  -83.3    7.3  145.9   -4.8   126.6
 18 JAN 17  17:17:00:00     295    2.7      19    0.2      200.5  -83.2    7.3  145.9   -4.8   126.1
 18 JAN 17  17:18:00:00     294    2.5      19    0.7      200.4  -83.1    7.3  145.9   -4.8   125.5
 18 JAN 17  17:19:00:00     289    2.9      18    1.5      200.4  -83.0    7.4  145.9   -4.8   125.0
 18 JAN 17  17:20:00:00     293    2.5      18    1.0      200.4  -82.9    7.4  145.9   -4.8   124.4
 18 JAN 17  17:21:00:00     290    2.9      18    0.4      200.3  -82.8    7.4  145.9   -4.8   123.9
 18 JAN 17  17:22:00:00     297    3.2      19   -0.7      200.3  -82.7    7.4  145.9   -4.8   123.4
 18 JAN 17  17:23:00:00     311    2.0      20    0.5      200.3  -82.6    7.4  145.9   -4.8   122.8
 18 JAN 18  18:00:00:00     312    1.5      20    0.6      200.3  -82.5    7.5  145.9   -4.8   122.3
 18 JAN 18  18:01:00:00     295    2.5      18    1.0      200.2  -82.4    7.5  145.9   -4.8   121.7
 18 JAN 18  18:02:00:00     296    2.2      19    0.5      200.2  -82.3    7.5  145.9   -4.8   121.1
 18 JAN 18  18:03:00:00     305    1.8      19    0.4      200.2  -82.2    7.5  145.9   -4.9   120.6
 18 JAN 18  18:04:00:00     287    2.8      17    0.3      200.2  -82.1    7.6  145.9   -4.9   120.0
 18 JAN 18  18:05:00:00     288    2.6      18   -0.2      200.1  -82.0    7.6  145.9   -4.9   119.5
 18 JAN 18  18:06:00:00     289    2.4      18   -0.6      200.1  -81.9    7.6  145.9   -4.9   118.9
 18 JAN 18  18:07:00:00     287    3.1      17   -0.7      200.1  -81.8    7.6  145.9   -4.9   118.4
 18 JAN 18  18:08:00:00     287    3.7      17   -0.9      200.0  -81.7    7.6  145.9   -4.9   117.9
 18 JAN 18  18:09:00:00     286    4.0      17   -0.8      200.0  -81.6    7.7  145.9   -4.9   117.3
 18 JAN 18  18:10:00:00     285    4.1      17   -1.0      200.0  -81.5    7.7  145.9   -4.9   116.8
 18 JAN 18  18:11:00:00     286    4.5      17   -1.1      200.0  -81.4    7.7  145.9   -4.9   116.2
 18 JAN 18  18:12:00:00     283    4.6      17   -0.8      199.9  -81.3    7.7  145.9   -4.9   115.7
 18 JAN 18  18:13:00:00     290    3.6      18   -0.2      199.9  -81.2    7.8  145.9   -4.9   115.1
 18 JAN 18  18:14:00:00     285    4.3      17   -0.5      199.9  -81.1    7.8  145.9   -4.9   114.5
 18 JAN 18  18:15:00:00     290    4.2      18   -1.1      199.9  -81.0    7.8  145.9   -4.9   114.0
 18 JAN 18  18:16:00:00     290    4.7      18    0.9      199.8  -80.9    7.8  145.9   -4.9   113.4
 18 JAN 18  18:17:00:00     288    4.7      18   -0.2      199.8  -80.8    7.8  145.9   -4.9   112.9
 18 JAN 18  18:18:00:00     285    5.1      17   -0.8      199.8  -80.7    7.9  145.9   -4.9   112.4
 18 JAN 18  18:19:00:00     285    5.0      17   -0.5      199.8  -80.6    7.9  145.9   -4.9   111.8
 18 JAN 18  18:20:00:00     286    4.6      17   -0.6      199.7  -80.4    7.9  145.9   -4.9   111.3
 18 JAN 18  18:21:00:00     287    4.9      17   -0.7      199.7  -80.3    7.9  145.9   -4.9   110.7
 18 JAN 18  18:22:00:00     290    4.8      18    0.1      199.7  -80.2    7.9  145.9   -4.9   110.2
 18 JAN 18  18:23:00:00     299    4.4      19    0.9      199.6  -80.1    8.0  145.9   -4.9   109.6
 18 JAN 19  19:00:00:00     311    4.5      19   -0.3      199.6  -80.0    8.0  145.9   -4.9   109.1
 18 JAN 19  19:01:00:00     321    5.9      21   -1.7      199.6  -79.9    8.0  145.9   -4.9   108.5
 18 JAN 19  19:02:00:00     331    5.1      22   -0.7      199.6  -79.8    8.0  145.9   -4.9   107.9
 18 JAN 19  19:03:00:00     335    4.6      25   -0.1      199.5  -79.7    8.1  145.9   -4.9   107.4
 18 JAN 19  19:04:00:00     355    4.3      30    1.6      199.5  -79.6    8.1  145.9   -4.9   106.9
 18 JAN 19  19:05:00:00     351    4.4      30    1.5      199.5  -79.5    8.1  145.9   -4.9   106.3
 18 JAN 19  19:06:00:00     331    7.1      26    2.6      199.5  -79.4    8.1  145.9   -4.9   105.8
 18 JAN 19  19:07:00:00     331    8.1      24    4.1      199.4  -79.3    8.1  145.9   -4.9   105.3
 18 JAN 19  19:08:00:00     332    4.8      26    2.2      199.4  -79.2    8.2  145.9   -4.9   104.7
 18 JAN 19  19:09:00:00     334    4.6      25    3.0      199.4  -79.1    8.2  145.9   -5.0   104.1
 18 JAN 19  19:10:00:00     340    5.2      25    2.8      199.4  -79.0    8.2  145.9   -5.0   103.6
 18 JAN 19  19:11:00:00     341    6.9      24    3.5      199.3  -78.9    8.2  145.9   -5.0   103.0
 18 JAN 19  19:12:00:00     335    6.8      24    3.3      199.3  -78.8    8.2  145.9   -5.0   102.5
 18 JAN 19  19:13:00:00     348    7.0      26   -1.5      199.3  -78.6    8.3  145.9   -5.0   101.9
 18 JAN 19  19:14:00:00     354    7.3      27    1.8      199.2  -78.5    8.3  145.9   -5.0   101.4
 18 JAN 19  19:15:00:00     356    6.8      27    2.2      199.2  -78.4    8.3  145.9   -5.0   100.8
 18 JAN 19  19:16:00:00     350    7.2      29    0.6      199.2  -78.3    8.3  145.9   -5.0   100.3
 18 JAN 19  19:17:00:00     352    9.1      30    1.9      199.2  -78.2    8.4  145.9   -5.0    99.8
 18 JAN 19  19:18:00:00     354    8.0      30    2.1      199.1  -78.1    8.4  145.9   -5.0    99.2
 18 JAN 19  19:19:00:00     349    7.0      29    0.5      199.1  -78.0    8.4  145.9   -5.0    98.7
 18 JAN 19  19:20:00:00     358    8.2      31    1.7      199.1  -77.9    8.4  145.9   -5.0    98.1
 18 JAN 19  19:21:00:00     358    7.7      31    2.5      199.1  -77.8    8.4  145.9   -5.0    97.5
 18 JAN 19  19:22:00:00      -1   -1.0      -1   99.0      199.0  -77.7    8.5  145.9   -5.0    97.0
 18 JAN 19  19:23:00:00      -1   -1.0      -1   99.0      199.0  -77.6    8.5  145.9   -5.0    96.4
 18 JAN 20  20:00:00:00      -1   -1.0      -1   99.0      199.0  -77.5    8.5  145.9   -5.0    95.9
 18 JAN 20  20:01:00:00      -1   -1.0      -1   99.0      199.0  -77.3    8.5  145.9   -5.0    95.3
 18 JAN 20  20:02:00:00      -1   -1.0      -1   99.0      198.9  -77.2    8.5  145.9   -5.0    94.8
 18 JAN 20  20:03:00:00     348   13.7      26   -6.1      198.9  -77.1    8.6  145.9   -5.0    94.3
 18 JAN 20  20:04:00:00     354   15.2      26   -5.9      198.9  -77.0    8.6  145.9   -5.0    93.7
 18 JAN 20  20:05:00:00     368   18.3      31   -6.2      198.9  -76.9    8.6  145.9   -5.0    93.2
 18 JAN 20  20:06:00:00     369   18.2      35   -6.3      198.8  -76.8    8.6  145.9   -5.0    92.6
 18 JAN 20  20:07:00:00     358   12.4      35   -2.4      198.8  -76.7    8.6  145.9   -5.0    92.1
 18 JAN 20  20:08:00:00     370   12.3      37   -3.5      198.8  -76.6    8.7  145.9   -5.0    91.5
 18 JAN 20  20:09:00:00     366   12.1      33   -3.7      198.8  -76.5    8.7  145.9   -5.0    90.9
 18 JAN 20  20:10:00:00     369    8.9      32   -3.0      198.7  -76.4    8.7  145.9   -5.0    90.4
 18 JAN 20  20:11:00:00     364    8.6      28   -3.1      198.7  -76.2    8.7  145.9   -5.0    89.8
 18 JAN 20  20:12:00:00     364    7.5      27   -1.9      198.7  -76.1    8.7  145.9   -5.0    89.3
 18 JAN 20  20:13:00:00     359    7.0      25   -1.8      198.6  -76.0    8.8  145.9   -5.0    88.8
 18 JAN 20  20:14:00:00     362    6.4      26   -1.6      198.6  -75.9    8.8  145.9   -5.0    88.2
 18 JAN 20  20:15:00:00     364    6.2      26   -1.8      198.6  -75.8    8.8  145.9   -5.1    87.7
 18 JAN 20  20:16:00:00     362    4.9      26   -1.7      198.6  -75.7    8.8  145.9   -5.1    87.1
 18 JAN 20  20:17:00:00     366    4.4      30   -1.5      198.5  -75.6    8.9  146.0   -5.1    86.6
 18 JAN 20  20:18:00:00     402    4.4      35   -1.3      198.5  -75.5    8.9  146.0   -5.1    86.0
 18 JAN 20  20:19:00:00     363    4.9      31   -4.1      198.5  -75.4    8.9  146.0   -5.1    85.5
 18 JAN 20  20:20:00:00     347    6.1      30   -3.8      198.5  -75.2    8.9  146.0   -5.1    84.9
 18 JAN 20  20:21:00:00     368    5.1      28   -0.7      198.4  -75.1    8.9  146.0   -5.1    84.4
 18 JAN 20  20:22:00:00     364    5.7      26   -1.6      198.4  -75.0    9.0  146.0   -5.1    83.8
 18 JAN 20  20:23:00:00     369    5.3      26   -0.6      198.4  -74.9    9.0  146.0   -5.1    83.3
 18 JAN 21  21:00:00:00     371    4.6      25    0.3      198.4  -74.8    9.0  146.0   -5.1    82.7
 18 JAN 21  21:01:00:00     374    5.2      25    0.1      198.3  -74.7    9.0  146.0   -5.1    82.2
 18 JAN 21  21:02:00:00     381    5.9      27    0.3      198.3  -74.6    9.0  146.0   -5.1    81.6
 18 JAN 21  21:03:00:00     374    7.0      25    1.5      198.3  -74.4    9.1  146.0   -5.1    81.1
 18 JAN 21  21:04:00:00     361    7.7      22    0.1      198.3  -74.3    9.1  146.0   -5.1    80.5
 18 JAN 21  21:05:00:00     383    6.9      28    0.0      198.2  -74.2    9.1  146.0   -5.1    80.0
 18 JAN 21  21:06:00:00     371    9.4      24   -1.1      198.2  -74.1    9.1  146.0   -5.2    79.4
 18 JAN 21  21:07:00:00     376    8.9      25   -1.5      198.2  -74.0    9.1  146.0   -5.2    78.9
 18 JAN 21  21:08:00:00     431    7.9      38    2.0      198.2  -73.9    9.2  146.0   -5.2    78.3
 18 JAN 21  21:09:00:00     435    8.0      38    2.3      198.1  -73.8    9.2  146.0   -5.2    77.8
 18 JAN 21  21:10:00:00     426    7.4      37    1.7      198.1  -73.6    9.2  146.0   -5.2    77.2
 18 JAN 21  21:11:00:00     423    6.5      37    2.0      198.1  -73.5    9.2  146.0   -5.2    76.7
 18 JAN 21  21:12:00:00     443    5.4      40    1.8      198.1  -73.4    9.2  146.0   -5.2    76.1
 18 JAN 21  21:13:00:00     465    6.6      43    1.0      198.0  -73.3    9.3  146.0   -5.2    75.6
 18 JAN 21  21:14:00:00     456    5.4      39    0.5      198.0  -73.2    9.3  146.0   -5.2    75.1
 18 JAN 21  21:15:00:00     470    4.3      44    0.7      198.0  -73.1    9.3  146.0   -5.2    74.5
 18 JAN 21  21:16:00:00     468    4.6      43    1.4      198.0  -73.0    9.3  146.0   -5.2    73.9
 18 JAN 21  21:17:00:00     473    4.9      43    1.6      197.9  -72.8    9.3  146.0   -5.2    73.4
 18 JAN 21  21:18:00:00     484    6.0      43    1.6      197.9  -72.7    9.4  146.0   -5.2    72.8
 18 JAN 21  21:19:00:00     481    6.1      43    1.5      197.9  -72.6    9.4  146.0   -5.2    72.3
 18 JAN 21  21:20:00:00     469    6.1      40    1.4      197.9  -72.5    9.4  146.0   -5.2    71.7
 18 JAN 21  21:21:00:00     466    6.0      41    0.8      197.8  -72.4    9.4  146.0   -5.2    71.2
 18 JAN 21  21:22:00:00     466    6.0      40    1.1      197.8  -72.3    9.4  146.0   -5.2    70.6
 18 JAN 21  21:23:00:00     467    5.8      40    1.4      197.8  -72.1    9.5  146.0   -5.2    70.1
 18 JAN 22  22:00:00:00     472    4.5      43    1.1      197.8  -72.0    9.5  146.0   -5.2    69.6
 18 JAN 22  22:01:00:00     517    7.4      50    3.4      197.7  -71.9    9.5  146.0   -5.2    69.0
 18 JAN 22  22:02:00:00     502    6.6      48   -0.1      197.7  -71.8    9.5  146.0   -5.2    68.5
 18 JAN 22  22:03:00:00     504    6.2      48    1.2      197.7  -71.7    9.5  146.0   -5.2    67.9
 18 JAN 22  22:04:00:00     498    5.5      47    0.8      197.7  -71.6    9.6  146.0   -5.2    67.4
 18 JAN 22  22:05:00:00     496    4.9      46    0.5      197.6  -71.4    9.6  146.0   -5.2    66.8
 18 JAN 22  22:06:00:00     484    3.9      49    0.7      197.6  -71.3    9.6  146.0   -5.2    66.2
 18 JAN 22  22:07:00:00     478    3.5      41    1.5      197.6  -71.2    9.6  146.0   -5.2    65.7
 18 JAN 22  22:08:00:00     484    3.5      43    0.6      197.6  -71.1    9.6  146.0   -5.2    65.1
 18 JAN 22  22:09:00:00     484    3.1      47    0.8      197.5  -71.0    9.7  146.0   -5.2    64.6
 18 JAN 22  22:10:00:00     481    2.9      49    0.1      197.5  -70.9    9.7  146.0   -5.2    64.1
 18 JAN 22  22:11:00:00     480    2.7      43    1.1      197.5  -70.7    9.7  146.0   -5.2    63.5
 18 JAN 22  22:12:00:00     504    2.9      44    2.4      197.5  -70.6    9.7  146.0   -5.2    63.0
 18 JAN 22  22:13:00:00     476    3.8      39    2.7      197.4  -70.5    9.7  146.0   -5.2    62.4
 18 JAN 22  22:14:00:00     477    3.8      39    2.0      197.4  -70.4    9.8  146.0   -5.3    61.9
 18 JAN 22  22:15:00:00     462    3.7      35    0.2      197.4  -70.3    9.8  146.0   -5.3    61.3
 18 JAN 22  22:16:00:00     464    3.3      35    0.1      197.4  -70.1    9.8  146.0   -5.3    60.8
 18 JAN 22  22:17:00:00     469    2.8      38    0.6      197.3  -70.0    9.8  146.0   -5.3    60.2
 18 JAN 22  22:18:00:00     460    2.7      38   -0.3      197.3  -69.9    9.8  146.0   -5.3    59.6
 18 JAN 22  22:19:00:00     456    2.2      41    0.4      197.3  -69.8    9.9  146.0   -5.3    59.1
 18 JAN 22  22:20:00:00     460    2.5      39    1.0      197.3  -69.7    9.9  146.0   -5.3    58.6
 18 JAN 22  22:21:00:00     455    2.5      36   -0.6      197.2  -69.5    9.9  146.0   -5.3    58.0
 18 JAN 22  22:22:00:00     454    2.3      35   -0.7      197.2  -69.4    9.9  146.0   -5.3    57.5
 18 JAN 22  22:23:00:00     448    1.9      34    0.2      197.2  -69.3    9.9  146.0   -5.3    57.0
 18 JAN 23  23:00:00:00     455    2.0      31    0.1      197.2  -69.2   10.0  146.0   -5.3    56.4
 18 JAN 23  23:01:00:00     457    1.9      30   -0.1      197.2  -69.1   10.0  146.0   -5.3    55.8
 18 JAN 23  23:02:00:00     452    1.1      40   -0.1      197.1  -68.9   10.0  146.0   -5.3    55.3
 18 JAN 23  23:03:00:00     450    1.3      37    0.4      197.1  -68.8   10.0  146.0   -5.3    54.7
 18 JAN 23  23:04:00:00     445    1.4      38    0.1      197.1  -68.7   10.0  146.0   -5.3    54.2
 18 JAN 23  23:05:00:00     439    1.1      39   -0.7      197.1  -68.6   10.1  146.0   -5.3    53.6
 18 JAN 23  23:06:00:00     430    1.2      39   -0.1      197.0  -68.5   10.1  146.0   -5.3    53.1
 18 JAN 23  23:07:00:00     422    1.2      38    0.8      197.0  -68.3   10.1  146.0   -5.3    52.5
 18 JAN 23  23:08:00:00     424    1.2      37    0.3      197.0  -68.2   10.1  146.0   -5.3    52.0
 18 JAN 23  23:09:00:00     441    2.2      31    1.0      197.0  -68.1   10.1  146.0   -5.3    51.5
 18 JAN 23  23:10:00:00     438    2.0      34    0.8      196.9  -68.0   10.1  146.0   -5.3    50.9
 18 JAN 23  23:11:00:00     426    1.4      36   -0.2      196.9  -67.9   10.2  146.0   -5.3    50.4
 18 JAN 23  23:12:00:00     422    1.0      36   -0.2      196.9  -67.7   10.2  146.0   -5.3    49.8
 18 JAN 23  23:13:00:00     419    0.8      37    0.1      196.9  -67.6   10.2  146.0   -5.3    49.2
 18 JAN 23  23:14:00:00     371    1.7      25    1.1      196.8  -67.5   10.2  146.0   -5.3    48.7
 18 JAN 23  23:15:00:00     363    2.0      22    1.4      196.8  -67.4   10.2  146.0   -5.3    48.1
 18 JAN 23  23:16:00:00     355    3.0      21    1.6      196.8  -67.2   10.3  146.0   -5.3    47.6
 18 JAN 23  23:17:00:00     352    3.3      20    1.3      196.8  -67.1   10.3  146.0   -5.3    47.0
 18 JAN 23  23:18:00:00     351    3.5      19    1.2      196.8  -67.0   10.3  146.0   -5.3    46.5
 18 JAN 23  23:19:00:00     352    3.2      20    1.3      196.7  -66.9   10.3  146.0   -5.3    46.0
 18 JAN 23  23:20:00:00     354    2.8      20    1.5      196.7  -66.8   10.3  146.0   -5.3    45.4
 18 JAN 23  23:21:00:00     353    3.0      19    1.5      196.7  -66.6   10.4  146.0   -5.3    44.9
 18 JAN 23  23:22:00:00     356    2.1      21    0.4      196.7  -66.5   10.4  146.0   -5.4    44.3
 18 JAN 23  23:23:00:00     354    1.9      21   -0.3      196.6  -66.4   10.4  146.0   -5.4    43.8
 18 JAN 24  24:00:00:00     354    1.7      20   -1.1      196.6  -66.3   10.4  146.0   -5.4    43.2
 18 JAN 24  24:01:00:00     356    1.8      22   -0.1      196.6  -66.1   10.4  146.0   -5.4    42.6
 18 JAN 24  24:02:00:00     357    2.3      22    0.3      196.6  -66.0   10.5  146.0   -5.4    42.1
 18 JAN 24  24:03:00:00     364    2.4      22    0.6      196.5  -65.9   10.5  146.0   -5.4    41.5
 18 JAN 24  24:04:00:00     367    2.5      22    1.3      196.5  -65.8   10.5  146.0   -5.4    41.0
 18 JAN 24  24:05:00:00     360    3.3      21    2.4      196.5  -65.6   10.5  146.0   -5.4    40.5
 18 JAN 24  24:06:00:00     359    2.6      22    2.4      196.5  -65.5   10.5  146.0   -5.4    39.9
 18 JAN 24  24:07:00:00     358    3.1      22    2.3      196.5  -65.4   10.5  146.0   -5.4    39.4
 18 JAN 24  24:08:00:00     353    2.5      22    1.2      196.4  -65.3   10.6  146.0   -5.4    38.8
 18 JAN 24  24:09:00:00     349    3.7      22    1.3      196.4  -65.2   10.6  146.0   -5.4    38.3
 18 JAN 24  24:10:00:00     352    3.7      23    1.5      196.4  -65.0   10.6  146.0   -5.4    37.7
 18 JAN 24  24:11:00:00     349    2.9      23    1.1      196.4  -64.9   10.6  146.0   -5.4    37.2
 18 JAN 24  24:12:00:00     352    3.6      23    0.9      196.3  -64.8   10.6  146.0   -5.4    36.6
 18 JAN 24  24:13:00:00     354    2.1      21   -0.3      196.3  -64.7   10.7  146.0   -5.4    36.0
 18 JAN 24  24:14:00:00     358    7.4      21    1.1      196.3  -64.5   10.7  146.0   -5.4    35.5
 18 JAN 24  24:15:00:00     360    7.6      22    0.5      196.3  -64.4   10.7  146.0   -5.4    35.0
 18 JAN 24  24:16:00:00     362    6.8      23   -1.1      196.3  -64.3   10.7  146.0   -5.4    34.4
 18 JAN 24  24:17:00:00     359   11.3      22    1.0      196.2  -64.2   10.7  146.0   -5.4    33.9
 18 JAN 24  24:18:00:00     359    9.9      24    0.7      196.2  -64.0   10.7  146.0   -5.4    33.3
 18 JAN 24  24:19:00:00     356   10.5      29    0.7      196.2  -63.9   10.8  146.0   -5.4    32.8
 18 JAN 24  24:20:00:00     367   10.7      35    1.8      196.2  -63.8   10.8  146.0   -5.4    32.2
 18 JAN 24  24:21:00:00     376    9.1      34    2.1      196.1  -63.7   10.8  146.0   -5.4    31.7
 18 JAN 24  24:22:00:00     384    9.0      40    2.8      196.1  -63.5   10.8  146.0   -5.4    31.1
 18 JAN 24  24:23:00:00     391   12.1      43    4.9      196.1  -63.4   10.8  146.0   -5.4    30.6
 18 JAN 25  25:00:00:00     368    9.7      35    1.4      196.1  -63.3   10.9  146.0   -5.4    30.0
 18 JAN 25  25:01:00:00     363   10.6      33    1.5      196.1  -63.2   10.9  146.0   -5.4    29.5
 18 JAN 25  25:02:00:00     363   11.9      33    2.6      196.0  -63.0   10.9  146.0   -5.4    28.9
 18 JAN 25  25:03:00:00     361   10.3      34    1.3      196.0  -62.9   10.9  146.0   -5.4    28.4
 18 JAN 25  25:04:00:00     368   10.2      33    3.2      196.0  -62.8   10.9  146.0   -5.4    27.8
 18 JAN 25  25:05:00:00     367    9.2      34    2.8      196.0  -62.6   11.0  146.0   -5.4    27.3
 18 JAN 25  25:06:00:00     377   12.1      36    5.4      196.0  -62.5   11.0  146.0   -5.4    26.8
 18 JAN 25  25:07:00:00     383    8.1      29    4.5      195.9  -62.4   11.0  146.0   -5.5    26.2
 18 JAN 25  25:08:00:00     381    6.3      28    3.0      195.9  -62.3   11.0  146.0   -5.5    25.6
 18 JAN 25  25:09:00:00     391    4.9      28    1.4      195.9  -62.1   11.0  146.0   -5.5    25.1
 18 JAN 25  25:10:00:00     387    6.0      27    4.0      195.9  -62.0   11.0  146.0   -5.5    24.5
 18 JAN 25  25:11:00:00     393    6.0      28    5.0      195.9  -61.9   11.1  146.0   -5.5    24.0
 18 JAN 25  25:12:00:00     377    5.9      26    4.0      195.8  -61.8   11.1  146.0   -5.5    23.4
 18 JAN 25  25:13:00:00     383    5.2      26    4.0      195.8  -61.6   11.1  146.0   -5.5    22.9
 18 JAN 25  25:14:00:00     380    4.3      26    1.0      195.8  -61.5   11.1  146.0   -5.5    22.3
 18 JAN 25  25:15:00:00     375    3.9      25   -0.6      195.8  -61.4   11.1  146.0   -5.5    21.8
 18 JAN 25  25:16:00:00     389    3.2      28    0.8      195.7  -61.3   11.1  146.0   -5.5    21.3
 18 JAN 25  25:17:00:00     378    3.9      25    0.3      195.7  -61.1   11.2  146.0   -5.5    20.7
 18 JAN 25  25:18:00:00     375    3.6      26    1.1      195.7  -61.0   11.2  146.0   -5.5    20.2
 18 JAN 25  25:19:00:00     375    4.2      25    1.5      195.7  -60.9   11.2  146.0   -5.5    19.6
 18 JAN 25  25:20:00:00     378    4.2      27    1.9      195.7  -60.7   11.2  146.0   -5.5    19.0
 18 JAN 25  25:21:00:00     380    3.6      30    0.5      195.6  -60.6   11.2  146.0   -5.5    18.5
 18 JAN 25  25:22:00:00     395    3.5      32   -0.4      195.6  -60.5   11.3  146.0   -5.5    17.9
 18 JAN 25  25:23:00:00     388    3.9      29   -0.4      195.6  -60.4   11.3  146.0   -5.5    17.4
 18 JAN 26  26:00:00:00     386    5.4      26    2.5      195.6  -60.2   11.3  146.0   -5.6    16.8
 18 JAN 26  26:01:00:00     387    6.3      26    3.7      195.6  -60.1   11.3  146.0   -5.6    16.3
 18 JAN 26  26:02:00:00     416    3.1      34    2.0      195.5  -60.0   11.3  146.0   -5.6    15.8
 18 JAN 26  26:03:00:00     412    5.3      33    4.1      195.5  -59.8   11.3  146.0   -5.6    15.2
 18 JAN 26  26:04:00:00     419    4.7      37    2.0      195.5  -59.7   11.4  146.0   -5.6    14.7
 18 JAN 26  26:05:00:00     442    6.8      34    1.0      195.5  -59.6   11.4  146.0   -5.6    14.1
 18 JAN 26  26:06:00:00     447    6.9      34    0.4      195.5  -59.5   11.4  146.0   -5.6    13.6
 18 JAN 26  26:07:00:00     456    7.1      34   -0.1      195.4  -59.3   11.4  146.0   -5.6    13.0
 18 JAN 26  26:08:00:00     463    7.2      34   -0.4      195.4  -59.2   11.4  146.0   -5.6    12.4
 18 JAN 26  26:09:00:00     460    6.5      34   -0.5      195.4  -59.1   11.4  146.0   -5.6    11.9
 18 JAN 26  26:10:00:00     463    6.3      36   -0.6      195.4  -58.9   11.5  146.1   -5.6    11.3
 18 JAN 26  26:11:00:00     455    5.5      34   -0.1      195.4  -58.8   11.5  146.1   -5.6    10.8
 18 JAN 26  26:12:00:00     451    5.0      33    0.5      195.4  -58.7   11.5  146.1   -5.6    10.3
 18 JAN 26  26:13:00:00     449    4.8      33    0.8      195.3  -58.5   11.5  146.1   -5.6     9.7
 18 JAN 26  26:14:00:00     449    4.2      35    1.1      195.3  -58.4   11.5  146.1   -5.6     9.2
 18 JAN 26  26:15:00:00     444    4.1      36    1.5      195.3  -58.3   11.6  146.1   -5.6     8.6
 18 JAN 26  26:16:00:00     442    3.5      37    1.0      195.3  -58.2   11.6  146.1   -5.6     8.1
 18 JAN 26  26:17:00:00     446    3.0      37    0.8      195.3  -58.0   11.6  146.1   -5.6     7.5
 18 JAN 26  26:18:00:00     441    2.6      38    0.3      195.2  -57.9   11.6  146.1   -5.6     7.0
 18 JAN 26  26:19:00:00     434    2.8      39    0.4      195.2  -57.8   11.6  146.1   -5.6     6.4
 18 JAN 26  26:20:00:00     434    3.6      37    0.0      195.2  -57.6   11.6  146.1   -5.6     5.9
 18 JAN 26  26:21:00:00     437    4.3      32   -0.3      195.2  -57.5   11.7  146.1   -5.6     5.3
 18 JAN 26  26:22:00:00     436    4.0      34   -0.6      195.2  -57.4   11.7  146.1   -5.6     4.8
 18 JAN 26  26:23:00:00     423    3.3      37   -1.3      195.1  -57.2   11.7  146.1   -5.6     4.2
 18 JAN 27  27:00:00:00     423    3.2      36   -2.1      195.1  -57.1   11.7  146.1   -5.6     3.7
 18 JAN 27  27:01:00:00     401    3.4      32   -0.3      195.1  -57.0   11.7  146.1   -5.6     3.2
 18 JAN 27  27:02:00:00     393    3.8      31   -0.2      195.1  -56.9   11.7  146.1   -5.6     2.6
 18 JAN 27  27:03:00:00     392    3.9      31   -0.1      195.1  -56.7   11.8  146.1   -5.6     2.0
 18 JAN 27  27:04:00:00     403    3.3      32    0.5      195.1  -56.6   11.8  146.1   -5.6     1.5
 18 JAN 27  27:05:00:00     406    3.9      34    0.9      195.0  -56.5   11.8  146.1   -5.6     0.9
 18 JAN 27  27:06:00:00     411    3.5      35    1.0      195.0  -56.3   11.8  146.1   -5.6     0.4